sensor_id;sensor_type;location;lat;lon;timestamp;P1;durP1;ratioP1;P2;durP2;ratioP2
25717;SDS011;13574;52.040;5.692;2023-07-02T00:01:47;15.32;;;5.80;;
25717;SDS011;13574;52.040;5.692;2023-07-02T00:04:13;13.27;;;5.75;;
25717;SDS011;13574;52.040;5.692;2023-07-02T00:06:44;17.30;;;6.47;;
25717;SDS011;13574;52.040;5.692;2023-07-02T00:09:18;15.85;;;6.28;;
25717;SDS011;13574;52.040;5.692;2023-07-02T00:11:44;16.40;;;6.32;;
25717;SDS011;13574;52.040;5.692;2023-07-02T00:14:13;15.52;;;6.60;;
25717;SDS011;13574;52.040;5.692;2023-07-02T00:16:42;18.95;;;6.60;;
25717;SDS011;13574;52.040;5.692;2023-07-02T00:19:12;15.82;;;6.25;;
25717;SDS011;13574;52.040;5.692;2023-07-02T00:24:08;15.68;;;5.97;;
25717;SDS011;13574;52.040;5.692;2023-07-02T00:26:35;12.50;;;5.65;;
25717;SDS011;13574;52.040;5.692;2023-07-02T00:29:03;12.20;;;5.78;;
25717;SDS011;13574;52.040;5.692;2023-07-02T00:31:31;14.30;;;5.63;;
25717;SDS011;13574;52.040;5.692;2023-07-02T00:33:58;15.73;;;6.70;;
25717;SDS011;13574;52.040;5.692;2023-07-02T00:36:25;17.63;;;6.43;;
25717;SDS011;13574;52.040;5.692;2023-07-02T00:38:51;11.05;;;5.65;;
25717;SDS011;13574;52.040;5.692;2023-07-02T00:41:17;16.17;;;6.25;;
25717;SDS011;13574;52.040;5.692;2023-07-02T00:43:43;14.93;;;6.22;;
25717;SDS011;13574;52.040;5.692;2023-07-02T00:46:11;17.02;;;6.05;;
25717;SDS011;13574;52.040;5.692;2023-07-02T00:48:43;17.23;;;6.47;;
25717;SDS011;13574;52.040;5.692;2023-07-02T00:51:11;14.80;;;6.40;;
25717;SDS011;13574;52.040;5.692;2023-07-02T00:53:57;12.65;;;6.10;;
25717;SDS011;13574;52.040;5.692;2023-07-02T00:56:24;15.13;;;5.95;;
25717;SDS011;13574;52.040;5.692;2023-07-02T00:58:51;12.65;;;6.35;;
25717;SDS011;13574;52.040;5.692;2023-07-02T01:01:19;18.60;;;9.00;;
25717;SDS011;13574;52.040;5.692;2023-07-02T01:03:56;16.85;;;6.45;;
25717;SDS011;13574;52.040;5.692;2023-07-02T01:06:33;19.52;;;9.20;;
25717;SDS011;13574;52.040;5.692;2023-07-02T01:09:02;12.57;;;6.90;;
25717;SDS011;13574;52.040;5.692;2023-07-02T01:11:39;18.83;;;8.05;;
25717;SDS011;13574;52.040;5.692;2023-07-02T01:14:15;13.45;;;6.82;;
25717;SDS011;13574;52.040;5.692;2023-07-02T01:16:51;14.93;;;6.03;;
25717;SDS011;13574;52.040;5.692;2023-07-02T01:19:41;14.45;;;6.22;;
25717;SDS011;13574;52.040;5.692;2023-07-02T01:22:05;12.70;;;5.57;;
25717;SDS011;13574;52.040;5.692;2023-07-02T01:24:32;14.00;;;6.40;;
25717;SDS011;13574;52.040;5.692;2023-07-02T01:26:58;12.45;;;5.60;;
25717;SDS011;13574;52.040;5.692;2023-07-02T01:29:28;11.75;;;5.68;;
25717;SDS011;13574;52.040;5.692;2023-07-02T01:31:54;14.07;;;5.95;;
25717;SDS011;13574;52.040;5.692;2023-07-02T01:34:21;13.32;;;6.00;;
25717;SDS011;13574;52.040;5.692;2023-07-02T01:36:47;12.93;;;5.30;;
25717;SDS011;13574;52.040;5.692;2023-07-02T01:39:12;27.67;;;13.48;;
25717;SDS011;13574;52.040;5.692;2023-07-02T01:41:48;15.18;;;7.00;;
25717;SDS011;13574;52.040;5.692;2023-07-02T01:44:16;13.48;;;6.18;;
25717;SDS011;13574;52.040;5.692;2023-07-02T01:46:43;12.27;;;5.93;;
25717;SDS011;13574;52.040;5.692;2023-07-02T01:49:09;13.18;;;6.13;;
25717;SDS011;13574;52.040;5.692;2023-07-02T01:51:34;15.13;;;6.53;;
25717;SDS011;13574;52.040;5.692;2023-07-02T01:54:03;12.57;;;5.95;;
25717;SDS011;13574;52.040;5.692;2023-07-02T01:56:28;14.43;;;6.07;;
25717;SDS011;13574;52.040;5.692;2023-07-02T01:58:54;13.65;;;6.30;;
25717;SDS011;13574;52.040;5.692;2023-07-02T02:01:20;16.17;;;6.75;;
25717;SDS011;13574;52.040;5.692;2023-07-02T02:03:46;15.85;;;6.55;;
25717;SDS011;13574;52.040;5.692;2023-07-02T02:06:11;13.07;;;6.72;;
25717;SDS011;13574;52.040;5.692;2023-07-02T02:08:37;14.38;;;6.78;;
25717;SDS011;13574;52.040;5.692;2023-07-02T02:11:03;17.60;;;6.68;;
25717;SDS011;13574;52.040;5.692;2023-07-02T02:13:29;17.40;;;7.28;;
25717;SDS011;13574;52.040;5.692;2023-07-02T02:15:54;15.98;;;7.00;;
25717;SDS011;13574;52.040;5.692;2023-07-02T02:18:20;13.07;;;6.85;;
25717;SDS011;13574;52.040;5.692;2023-07-02T02:20:46;15.77;;;6.68;;
25717;SDS011;13574;52.040;5.692;2023-07-02T02:23:11;15.45;;;6.63;;
25717;SDS011;13574;52.040;5.692;2023-07-02T02:25:39;15.95;;;7.10;;
25717;SDS011;13574;52.040;5.692;2023-07-02T02:28:05;14.82;;;6.10;;
25717;SDS011;13574;52.040;5.692;2023-07-02T02:30:31;17.70;;;6.50;;
25717;SDS011;13574;52.040;5.692;2023-07-02T02:32:57;17.17;;;6.85;;
25717;SDS011;13574;52.040;5.692;2023-07-02T02:35:22;16.27;;;6.25;;
25717;SDS011;13574;52.040;5.692;2023-07-02T02:37:48;11.43;;;6.18;;
25717;SDS011;13574;52.040;5.692;2023-07-02T02:40:14;19.23;;;6.82;;
25717;SDS011;13574;52.040;5.692;2023-07-02T02:42:40;14.25;;;6.75;;
25717;SDS011;13574;52.040;5.692;2023-07-02T02:45:06;12.93;;;6.13;;
25717;SDS011;13574;52.040;5.692;2023-07-02T02:47:34;15.05;;;7.18;;
25717;SDS011;13574;52.040;5.692;2023-07-02T02:50:00;13.95;;;6.55;;
25717;SDS011;13574;52.040;5.692;2023-07-02T02:52:25;16.10;;;6.82;;
25717;SDS011;13574;52.040;5.692;2023-07-02T02:54:51;15.95;;;6.97;;
25717;SDS011;13574;52.040;5.692;2023-07-02T02:57:20;14.57;;;6.30;;
25717;SDS011;13574;52.040;5.692;2023-07-02T02:59:46;17.30;;;6.78;;
25717;SDS011;13574;52.040;5.692;2023-07-02T03:02:11;15.35;;;6.80;;
25717;SDS011;13574;52.040;5.692;2023-07-02T03:04:37;13.38;;;6.88;;
25717;SDS011;13574;52.040;5.692;2023-07-02T03:07:06;12.88;;;6.30;;
25717;SDS011;13574;52.040;5.692;2023-07-02T03:09:35;11.90;;;6.38;;
25717;SDS011;13574;52.040;5.692;2023-07-02T03:12:00;14.18;;;7.10;;
25717;SDS011;13574;52.040;5.692;2023-07-02T03:14:26;16.38;;;6.53;;
25717;SDS011;13574;52.040;5.692;2023-07-02T03:16:54;17.98;;;6.32;;
25717;SDS011;13574;52.040;5.692;2023-07-02T03:19:20;14.90;;;6.97;;
25717;SDS011;13574;52.040;5.692;2023-07-02T03:21:47;19.90;;;7.15;;
25717;SDS011;13574;52.040;5.692;2023-07-02T03:24:13;16.13;;;6.78;;
25717;SDS011;13574;52.040;5.692;2023-07-02T03:26:39;13.75;;;6.40;;
25717;SDS011;13574;52.040;5.692;2023-07-02T03:29:06;15.77;;;6.90;;
25717;SDS011;13574;52.040;5.692;2023-07-02T03:31:31;11.68;;;6.13;;
25717;SDS011;13574;52.040;5.692;2023-07-02T03:34:01;15.02;;;6.82;;
25717;SDS011;13574;52.040;5.692;2023-07-02T03:36:32;12.68;;;6.15;;
25717;SDS011;13574;52.040;5.692;2023-07-02T03:38:58;15.38;;;6.80;;
25717;SDS011;13574;52.040;5.692;2023-07-02T03:41:24;15.40;;;6.63;;
25717;SDS011;13574;52.040;5.692;2023-07-02T03:43:50;15.88;;;6.35;;
25717;SDS011;13574;52.040;5.692;2023-07-02T03:46:16;13.13;;;6.65;;
25717;SDS011;13574;52.040;5.692;2023-07-02T03:48:41;15.05;;;6.47;;
25717;SDS011;13574;52.040;5.692;2023-07-02T03:51:07;15.10;;;6.22;;
25717;SDS011;13574;52.040;5.692;2023-07-02T03:53:33;14.27;;;6.63;;
25717;SDS011;13574;52.040;5.692;2023-07-02T03:55:59;15.60;;;6.07;;
25717;SDS011;13574;52.040;5.692;2023-07-02T03:58:25;15.48;;;6.63;;
25717;SDS011;13574;52.040;5.692;2023-07-02T04:00:51;16.67;;;7.03;;
25717;SDS011;13574;52.040;5.692;2023-07-02T04:03:16;14.32;;;6.70;;
25717;SDS011;13574;52.040;5.692;2023-07-02T04:05:43;18.08;;;6.75;;
25717;SDS011;13574;52.040;5.692;2023-07-02T04:08:09;18.23;;;6.28;;
25717;SDS011;13574;52.040;5.692;2023-07-02T04:10:37;14.13;;;6.60;;
25717;SDS011;13574;52.040;5.692;2023-07-02T04:13:03;14.35;;;6.43;;
25717;SDS011;13574;52.040;5.692;2023-07-02T04:15:34;13.40;;;6.03;;
25717;SDS011;13574;52.040;5.692;2023-07-02T04:18:00;17.40;;;6.65;;
25717;SDS011;13574;52.040;5.692;2023-07-02T04:20:26;16.42;;;6.78;;
25717;SDS011;13574;52.040;5.692;2023-07-02T04:22:54;19.13;;;6.75;;
25717;SDS011;13574;52.040;5.692;2023-07-02T04:25:20;16.23;;;7.07;;
25717;SDS011;13574;52.040;5.692;2023-07-02T04:27:46;16.20;;;6.75;;
25717;SDS011;13574;52.040;5.692;2023-07-02T04:30:12;13.32;;;5.88;;
25717;SDS011;13574;52.040;5.692;2023-07-02T04:32:40;18.38;;;6.80;;
25717;SDS011;13574;52.040;5.692;2023-07-02T04:35:06;14.98;;;6.88;;
25717;SDS011;13574;52.040;5.692;2023-07-02T04:37:36;13.07;;;6.95;;
25717;SDS011;13574;52.040;5.692;2023-07-02T04:40:02;15.05;;;6.50;;
25717;SDS011;13574;52.040;5.692;2023-07-02T04:42:37;13.90;;;6.25;;
25717;SDS011;13574;52.040;5.692;2023-07-02T04:45:07;16.45;;;6.22;;
25717;SDS011;13574;52.040;5.692;2023-07-02T04:47:33;15.68;;;7.32;;
25717;SDS011;13574;52.040;5.692;2023-07-02T04:50:00;13.88;;;5.88;;
25717;SDS011;13574;52.040;5.692;2023-07-02T04:52:26;15.02;;;6.18;;
25717;SDS011;13574;52.040;5.692;2023-07-02T04:54:52;16.23;;;7.10;;
25717;SDS011;13574;52.040;5.692;2023-07-02T04:57:18;17.80;;;5.68;;
25717;SDS011;13574;52.040;5.692;2023-07-02T04:59:44;17.30;;;6.65;;
25717;SDS011;13574;52.040;5.692;2023-07-02T05:02:10;17.45;;;6.60;;
25717;SDS011;13574;52.040;5.692;2023-07-02T05:04:36;17.52;;;6.63;;
25717;SDS011;13574;52.040;5.692;2023-07-02T05:07:04;14.02;;;6.63;;
25717;SDS011;13574;52.040;5.692;2023-07-02T05:09:30;15.18;;;6.72;;
25717;SDS011;13574;52.040;5.692;2023-07-02T05:11:57;13.73;;;6.15;;
25717;SDS011;13574;52.040;5.692;2023-07-02T05:14:23;12.23;;;5.95;;
25717;SDS011;13574;52.040;5.692;2023-07-02T05:16:49;17.48;;;6.75;;
25717;SDS011;13574;52.040;5.692;2023-07-02T05:19:15;17.90;;;6.78;;
25717;SDS011;13574;52.040;5.692;2023-07-02T05:21:41;17.17;;;6.95;;
25717;SDS011;13574;52.040;5.692;2023-07-02T05:24:07;14.75;;;6.00;;
25717;SDS011;13574;52.040;5.692;2023-07-02T05:26:41;15.95;;;6.50;;
25717;SDS011;13574;52.040;5.692;2023-07-02T05:29:07;19.98;;;6.97;;
25717;SDS011;13574;52.040;5.692;2023-07-02T05:31:32;15.13;;;6.25;;
25717;SDS011;13574;52.040;5.692;2023-07-02T05:33:59;21.02;;;7.00;;
25717;SDS011;13574;52.040;5.692;2023-07-02T05:36:25;16.25;;;7.07;;
25717;SDS011;13574;52.040;5.692;2023-07-02T05:38:52;16.58;;;7.03;;
25717;SDS011;13574;52.040;5.692;2023-07-02T05:41:21;15.07;;;7.20;;
25717;SDS011;13574;52.040;5.692;2023-07-02T05:43:47;16.83;;;6.90;;
25717;SDS011;13574;52.040;5.692;2023-07-02T05:46:13;19.73;;;6.68;;
25717;SDS011;13574;52.040;5.692;2023-07-02T05:48:40;15.40;;;6.05;;
25717;SDS011;13574;52.040;5.692;2023-07-02T05:51:07;18.33;;;6.85;;
25717;SDS011;13574;52.040;5.692;2023-07-02T05:53:33;15.20;;;6.82;;
25717;SDS011;13574;52.040;5.692;2023-07-02T05:56:00;18.95;;;6.95;;
25717;SDS011;13574;52.040;5.692;2023-07-02T05:58:25;18.55;;;6.60;;
25717;SDS011;13574;52.040;5.692;2023-07-02T06:01:01;15.82;;;6.45;;
25717;SDS011;13574;52.040;5.692;2023-07-02T06:03:27;18.80;;;6.93;;
25717;SDS011;13574;52.040;5.692;2023-07-02T06:05:53;18.23;;;6.43;;
25717;SDS011;13574;52.040;5.692;2023-07-02T06:08:18;14.15;;;6.20;;
25717;SDS011;13574;52.040;5.692;2023-07-02T06:10:45;19.48;;;6.68;;
25717;SDS011;13574;52.040;5.692;2023-07-02T06:13:12;21.42;;;6.50;;
25717;SDS011;13574;52.040;5.692;2023-07-02T06:15:40;18.15;;;6.90;;
25717;SDS011;13574;52.040;5.692;2023-07-02T06:18:06;15.55;;;6.70;;
25717;SDS011;13574;52.040;5.692;2023-07-02T06:20:32;18.48;;;6.20;;
25717;SDS011;13574;52.040;5.692;2023-07-02T06:22:58;17.05;;;6.70;;
25717;SDS011;13574;52.040;5.692;2023-07-02T06:25:23;20.40;;;6.38;;
25717;SDS011;13574;52.040;5.692;2023-07-02T06:27:49;17.65;;;6.63;;
25717;SDS011;13574;52.040;5.692;2023-07-02T06:30:23;18.20;;;6.80;;
25717;SDS011;13574;52.040;5.692;2023-07-02T06:32:51;16.10;;;6.28;;
25717;SDS011;13574;52.040;5.692;2023-07-02T06:35:19;13.65;;;5.85;;
25717;SDS011;13574;52.040;5.692;2023-07-02T06:37:46;15.40;;;6.53;;
25717;SDS011;13574;52.040;5.692;2023-07-02T06:40:14;16.83;;;6.60;;
25717;SDS011;13574;52.040;5.692;2023-07-02T06:42:40;17.30;;;6.45;;
25717;SDS011;13574;52.040;5.692;2023-07-02T06:50:51;14.50;;;5.72;;
25717;SDS011;13574;52.040;5.692;2023-07-02T06:53:16;14.35;;;6.22;;
25717;SDS011;13574;52.040;5.692;2023-07-02T06:55:42;14.10;;;6.05;;
25717;SDS011;13574;52.040;5.692;2023-07-02T06:58:11;18.00;;;6.20;;
25717;SDS011;13574;52.040;5.692;2023-07-02T07:04:11;14.15;;;5.80;;
25717;SDS011;13574;52.040;5.692;2023-07-02T07:06:37;13.77;;;5.50;;
25717;SDS011;13574;52.040;5.692;2023-07-02T07:09:06;14.85;;;5.63;;
25717;SDS011;13574;52.040;5.692;2023-07-02T07:11:32;14.68;;;5.68;;
25717;SDS011;13574;52.040;5.692;2023-07-02T07:13:57;14.07;;;5.65;;
25717;SDS011;13574;52.040;5.692;2023-07-02T07:19:50;15.75;;;6.07;;
25717;SDS011;13574;52.040;5.692;2023-07-02T07:22:42;11.70;;;5.65;;
25717;SDS011;13574;52.040;5.692;2023-07-02T07:25:07;12.23;;;5.65;;
25717;SDS011;13574;52.040;5.692;2023-07-02T07:27:33;10.43;;;5.65;;
25717;SDS011;13574;52.040;5.692;2023-07-02T07:30:04;14.23;;;5.72;;
25717;SDS011;13574;52.040;5.692;2023-07-02T07:32:30;12.32;;;5.85;;
25717;SDS011;13574;52.040;5.692;2023-07-02T07:34:58;10.85;;;5.50;;
25717;SDS011;13574;52.040;5.692;2023-07-02T07:37:26;12.52;;;6.18;;
25717;SDS011;13574;52.040;5.692;2023-07-02T07:39:57;12.73;;;5.43;;
25717;SDS011;13574;52.040;5.692;2023-07-02T07:42:27;9.70;;;5.25;;
25717;SDS011;13574;52.040;5.692;2023-07-02T07:47:18;13.10;;;5.53;;
25717;SDS011;13574;52.040;5.692;2023-07-02T07:49:44;10.77;;;5.18;;
25717;SDS011;13574;52.040;5.692;2023-07-02T07:52:10;11.35;;;5.97;;
25717;SDS011;13574;52.040;5.692;2023-07-02T07:54:51;10.35;;;5.30;;
25717;SDS011;13574;52.040;5.692;2023-07-02T07:57:19;12.45;;;5.00;;
25717;SDS011;13574;52.040;5.692;2023-07-02T07:59:45;11.85;;;5.18;;
25717;SDS011;13574;52.040;5.692;2023-07-02T08:02:10;11.52;;;4.68;;
25717;SDS011;13574;52.040;5.692;2023-07-02T08:04:36;11.35;;;4.95;;
25717;SDS011;13574;52.040;5.692;2023-07-02T08:07:02;10.70;;;4.82;;
25717;SDS011;13574;52.040;5.692;2023-07-02T08:09:30;12.35;;;5.22;;
25717;SDS011;13574;52.040;5.692;2023-07-02T08:11:56;12.73;;;5.13;;
25717;SDS011;13574;52.040;5.692;2023-07-02T08:14:24;10.82;;;4.90;;
25717;SDS011;13574;52.040;5.692;2023-07-02T08:16:50;14.07;;;5.32;;
25717;SDS011;13574;52.040;5.692;2023-07-02T08:19:18;10.02;;;4.45;;
25717;SDS011;13574;52.040;5.692;2023-07-02T08:21:45;9.77;;;4.72;;
25717;SDS011;13574;52.040;5.692;2023-07-02T08:24:11;8.18;;;4.80;;
25717;SDS011;13574;52.040;5.692;2023-07-02T08:26:38;8.20;;;4.40;;
25717;SDS011;13574;52.040;5.692;2023-07-02T08:29:06;11.27;;;4.90;;
25717;SDS011;13574;52.040;5.692;2023-07-02T08:31:32;9.18;;;4.68;;
25717;SDS011;13574;52.040;5.692;2023-07-02T08:34:03;8.88;;;4.75;;
25717;SDS011;13574;52.040;5.692;2023-07-02T08:36:29;10.77;;;4.65;;
25717;SDS011;13574;52.040;5.692;2023-07-02T08:38:55;9.57;;;4.35;;
25717;SDS011;13574;52.040;5.692;2023-07-02T08:41:42;11.60;;;5.32;;
25717;SDS011;13574;52.040;5.692;2023-07-02T08:44:23;8.25;;;4.32;;
25717;SDS011;13574;52.040;5.692;2023-07-02T08:47:45;10.30;;;5.00;;
25717;SDS011;13574;52.040;5.692;2023-07-02T08:50:01;8.30;;;4.60;;
25717;SDS011;13574;52.040;5.692;2023-07-02T08:52:30;10.68;;;5.20;;
25717;SDS011;13574;52.040;5.692;2023-07-02T08:54:56;8.98;;;4.78;;
25717;SDS011;13574;52.040;5.692;2023-07-02T08:57:22;10.00;;;4.20;;
25717;SDS011;13574;52.040;5.692;2023-07-02T08:59:47;9.38;;;4.45;;
25717;SDS011;13574;52.040;5.692;2023-07-02T09:02:17;9.27;;;4.15;;
25717;SDS011;13574;52.040;5.692;2023-07-02T09:05:05;7.00;;;4.50;;
25717;SDS011;13574;52.040;5.692;2023-07-02T09:07:31;7.68;;;4.30;;
25717;SDS011;13574;52.040;5.692;2023-07-02T09:09:57;9.18;;;4.30;;
25717;SDS011;13574;52.040;5.692;2023-07-02T09:12:28;7.68;;;4.30;;
25717;SDS011;13574;52.040;5.692;2023-07-02T09:14:56;9.85;;;4.13;;
25717;SDS011;13574;52.040;5.692;2023-07-02T09:17:31;10.18;;;4.32;;
25717;SDS011;13574;52.040;5.692;2023-07-02T09:19:58;10.20;;;4.18;;
25717;SDS011;13574;52.040;5.692;2023-07-02T09:22:27;8.70;;;4.25;;
25717;SDS011;13574;52.040;5.692;2023-07-02T09:24:54;7.63;;;3.72;;
25717;SDS011;13574;52.040;5.692;2023-07-02T09:30:06;6.78;;;3.90;;
25717;SDS011;13574;52.040;5.692;2023-07-02T09:32:41;8.73;;;4.00;;
25717;SDS011;13574;52.040;5.692;2023-07-02T09:35:12;9.13;;;3.85;;
25717;SDS011;13574;52.040;5.692;2023-07-02T09:37:38;7.78;;;4.30;;
25717;SDS011;13574;52.040;5.692;2023-07-02T09:40:10;6.40;;;3.50;;
25717;SDS011;13574;52.040;5.692;2023-07-02T09:42:39;7.88;;;4.10;;
25717;SDS011;13574;52.040;5.692;2023-07-02T09:45:07;6.15;;;3.40;;
25717;SDS011;13574;52.040;5.692;2023-07-02T09:47:35;9.02;;;3.83;;
25717;SDS011;13574;52.040;5.692;2023-07-02T09:50:05;7.82;;;3.92;;
25717;SDS011;13574;52.040;5.692;2023-07-02T09:52:33;8.38;;;3.88;;
25717;SDS011;13574;52.040;5.692;2023-07-02T09:55:00;7.97;;;3.78;;
25717;SDS011;13574;52.040;5.692;2023-07-02T09:57:26;6.97;;;3.60;;
25717;SDS011;13574;52.040;5.692;2023-07-02T09:59:56;7.07;;;3.20;;
25717;SDS011;13574;52.040;5.692;2023-07-02T10:02:23;8.93;;;3.75;;
25717;SDS011;13574;52.040;5.692;2023-07-02T10:04:49;6.00;;;3.50;;
25717;SDS011;13574;52.040;5.692;2023-07-02T10:07:26;6.28;;;3.08;;
25717;SDS011;13574;52.040;5.692;2023-07-02T10:09:53;6.28;;;2.90;;
25717;SDS011;13574;52.040;5.692;2023-07-02T10:12:20;5.65;;;2.97;;
25717;SDS011;13574;52.040;5.692;2023-07-02T10:14:48;5.18;;;3.30;;
25717;SDS011;13574;52.040;5.692;2023-07-02T10:17:28;6.18;;;2.92;;
25717;SDS011;13574;52.040;5.692;2023-07-02T10:20:07;6.45;;;3.55;;
25717;SDS011;13574;52.040;5.692;2023-07-02T10:22:49;7.22;;;3.70;;
25717;SDS011;13574;52.040;5.692;2023-07-02T10:28:14;6.22;;;3.15;;
25717;SDS011;13574;52.040;5.692;2023-07-02T10:30:49;5.47;;;3.53;;
25717;SDS011;13574;52.040;5.692;2023-07-02T10:33:17;4.53;;;2.90;;
25717;SDS011;13574;52.040;5.692;2023-07-02T10:35:44;6.97;;;3.58;;
25717;SDS011;13574;52.040;5.692;2023-07-02T10:38:24;5.25;;;3.10;;
25717;SDS011;13574;52.040;5.692;2023-07-02T10:40:54;6.53;;;3.38;;
25717;SDS011;13574;52.040;5.692;2023-07-02T10:43:28;7.30;;;3.30;;
25717;SDS011;13574;52.040;5.692;2023-07-02T10:45:55;6.53;;;3.22;;
25717;SDS011;13574;52.040;5.692;2023-07-02T10:48:21;8.18;;;3.20;;
25717;SDS011;13574;52.040;5.692;2023-07-02T10:50:47;7.47;;;3.47;;
25717;SDS011;13574;52.040;5.692;2023-07-02T10:53:16;6.10;;;3.22;;
25717;SDS011;13574;52.040;5.692;2023-07-02T10:55:45;6.05;;;3.42;;
25717;SDS011;13574;52.040;5.692;2023-07-02T10:58:18;7.80;;;3.20;;
25717;SDS011;13574;52.040;5.692;2023-07-02T11:00:45;4.80;;;2.85;;
25717;SDS011;13574;52.040;5.692;2023-07-02T11:03:20;5.47;;;3.00;;
25717;SDS011;13574;52.040;5.692;2023-07-02T11:05:50;7.53;;;3.25;;
25717;SDS011;13574;52.040;5.692;2023-07-02T11:08:16;6.45;;;3.50;;
25717;SDS011;13574;52.040;5.692;2023-07-02T11:10:43;5.30;;;2.90;;
25717;SDS011;13574;52.040;5.692;2023-07-02T11:13:19;4.85;;;2.67;;
25717;SDS011;13574;52.040;5.692;2023-07-02T11:15:45;4.70;;;2.70;;
25717;SDS011;13574;52.040;5.692;2023-07-02T11:18:11;6.47;;;2.92;;
25717;SDS011;13574;52.040;5.692;2023-07-02T11:20:40;7.55;;;3.30;;
25717;SDS011;13574;52.040;5.692;2023-07-02T11:23:20;6.93;;;2.63;;
25717;SDS011;13574;52.040;5.692;2023-07-02T11:26:20;7.40;;;2.97;;
25717;SDS011;13574;52.040;5.692;2023-07-02T11:28:47;6.65;;;3.00;;
25717;SDS011;13574;52.040;5.692;2023-07-02T11:31:23;4.85;;;2.45;;
25717;SDS011;13574;52.040;5.692;2023-07-02T11:33:50;6.13;;;2.80;;
25717;SDS011;13574;52.040;5.692;2023-07-02T11:36:20;6.40;;;3.10;;
25717;SDS011;13574;52.040;5.692;2023-07-02T11:38:48;7.45;;;2.78;;
25717;SDS011;13574;52.040;5.692;2023-07-02T11:41:15;6.88;;;2.80;;
25717;SDS011;13574;52.040;5.692;2023-07-02T11:43:41;6.70;;;3.15;;
25717;SDS011;13574;52.040;5.692;2023-07-02T11:46:06;6.68;;;2.78;;
25717;SDS011;13574;52.040;5.692;2023-07-02T11:48:32;6.78;;;3.28;;
25717;SDS011;13574;52.040;5.692;2023-07-02T11:50:58;6.50;;;3.08;;
25717;SDS011;13574;52.040;5.692;2023-07-02T11:53:24;6.95;;;3.08;;
25717;SDS011;13574;52.040;5.692;2023-07-02T11:55:50;6.82;;;3.03;;
25717;SDS011;13574;52.040;5.692;2023-07-02T11:58:16;6.45;;;3.17;;
25717;SDS011;13574;52.040;5.692;2023-07-02T12:00:46;6.95;;;2.95;;
25717;SDS011;13574;52.040;5.692;2023-07-02T12:03:12;5.30;;;2.92;;
25717;SDS011;13574;52.040;5.692;2023-07-02T12:05:37;8.23;;;3.30;;
25717;SDS011;13574;52.040;5.692;2023-07-02T12:08:03;5.35;;;3.17;;
25717;SDS011;13574;52.040;5.692;2023-07-02T12:10:32;7.25;;;3.42;;
25717;SDS011;13574;52.040;5.692;2023-07-02T12:12:58;5.72;;;2.83;;
25717;SDS011;13574;52.040;5.692;2023-07-02T12:15:23;7.88;;;3.17;;
25717;SDS011;13574;52.040;5.692;2023-07-02T12:17:49;6.20;;;3.03;;
25717;SDS011;13574;52.040;5.692;2023-07-02T12:20:15;8.57;;;3.50;;
25717;SDS011;13574;52.040;5.692;2023-07-02T12:22:40;7.85;;;3.05;;
25717;SDS011;13574;52.040;5.692;2023-07-02T12:25:06;7.70;;;2.90;;
25717;SDS011;13574;52.040;5.692;2023-07-02T12:27:32;6.40;;;2.88;;
25717;SDS011;13574;52.040;5.692;2023-07-02T12:30:05;6.68;;;3.22;;
25717;SDS011;13574;52.040;5.692;2023-07-02T12:32:33;5.45;;;2.72;;
25717;SDS011;13574;52.040;5.692;2023-07-02T12:34:59;6.95;;;3.25;;
25717;SDS011;13574;52.040;5.692;2023-07-02T12:37:26;8.55;;;3.33;;
25717;SDS011;13574;52.040;5.692;2023-07-02T12:39:59;7.20;;;3.10;;
25717;SDS011;13574;52.040;5.692;2023-07-02T12:42:26;5.63;;;2.65;;
25717;SDS011;13574;52.040;5.692;2023-07-02T12:44:52;9.65;;;3.40;;
25717;SDS011;13574;52.040;5.692;2023-07-02T12:47:17;5.82;;;3.28;;
25717;SDS011;13574;52.040;5.692;2023-07-02T12:49:46;8.15;;;3.45;;
25717;SDS011;13574;52.040;5.692;2023-07-02T12:52:14;6.88;;;3.47;;
25717;SDS011;13574;52.040;5.692;2023-07-02T12:54:40;6.78;;;3.50;;
25717;SDS011;13574;52.040;5.692;2023-07-02T12:57:06;6.65;;;3.53;;
25717;SDS011;13574;52.040;5.692;2023-07-02T12:59:32;6.32;;;3.08;;
25717;SDS011;13574;52.040;5.692;2023-07-02T13:01:58;7.43;;;3.50;;
25717;SDS011;13574;52.040;5.692;2023-07-02T13:04:23;7.97;;;3.13;;
25717;SDS011;13574;52.040;5.692;2023-07-02T13:06:49;7.38;;;3.72;;
25717;SDS011;13574;52.040;5.692;2023-07-02T13:09:15;9.18;;;3.72;;
25717;SDS011;13574;52.040;5.692;2023-07-02T13:11:40;9.10;;;3.67;;
25717;SDS011;13574;52.040;5.692;2023-07-02T13:14:06;9.23;;;3.47;;
25717;SDS011;13574;52.040;5.692;2023-07-02T13:16:32;7.70;;;3.47;;
25717;SDS011;13574;52.040;5.692;2023-07-02T13:18:58;7.18;;;3.03;;
25717;SDS011;13574;52.040;5.692;2023-07-02T13:21:26;8.57;;;3.50;;
25717;SDS011;13574;52.040;5.692;2023-07-02T13:23:52;6.85;;;3.17;;
25717;SDS011;13574;52.040;5.692;2023-07-02T13:26:18;6.45;;;3.22;;
25717;SDS011;13574;52.040;5.692;2023-07-02T13:28:45;8.02;;;3.30;;
25717;SDS011;13574;52.040;5.692;2023-07-02T13:31:14;9.93;;;3.53;;
25717;SDS011;13574;52.040;5.692;2023-07-02T13:33:40;7.38;;;3.22;;
25717;SDS011;13574;52.040;5.692;2023-07-02T13:36:07;6.65;;;3.40;;
25717;SDS011;13574;52.040;5.692;2023-07-02T13:38:33;7.43;;;3.58;;
25717;SDS011;13574;52.040;5.692;2023-07-02T13:40:59;6.28;;;3.30;;
25717;SDS011;13574;52.040;5.692;2023-07-02T13:43:32;6.57;;;3.20;;
25717;SDS011;13574;52.040;5.692;2023-07-02T13:45:58;8.23;;;3.75;;
25717;SDS011;13574;52.040;5.692;2023-07-02T13:48:24;6.03;;;3.10;;
25717;SDS011;13574;52.040;5.692;2023-07-02T13:50:53;7.45;;;3.42;;
25717;SDS011;13574;52.040;5.692;2023-07-02T13:53:19;7.88;;;3.60;;
25717;SDS011;13574;52.040;5.692;2023-07-02T13:55:45;9.05;;;3.17;;
25717;SDS011;13574;52.040;5.692;2023-07-02T13:58:11;8.10;;;3.28;;
25717;SDS011;13574;52.040;5.692;2023-07-02T14:00:39;6.97;;;3.55;;
25717;SDS011;13574;52.040;5.692;2023-07-02T14:03:08;9.60;;;3.65;;
25717;SDS011;13574;52.040;5.692;2023-07-02T14:05:33;7.93;;;3.22;;
25717;SDS011;13574;52.040;5.692;2023-07-02T14:07:59;9.02;;;3.75;;
25717;SDS011;13574;52.040;5.692;2023-07-02T14:10:27;11.20;;;3.92;;
25717;SDS011;13574;52.040;5.692;2023-07-02T14:12:53;10.45;;;3.90;;
25717;SDS011;13574;52.040;5.692;2023-07-02T14:15:19;11.18;;;4.22;;
25717;SDS011;13574;52.040;5.692;2023-07-02T14:17:45;10.23;;;3.60;;
25717;SDS011;13574;52.040;5.692;2023-07-02T14:20:13;10.05;;;3.70;;
25717;SDS011;13574;52.040;5.692;2023-07-02T14:22:39;8.95;;;3.92;;
25717;SDS011;13574;52.040;5.692;2023-07-02T14:25:05;7.30;;;3.33;;
25717;SDS011;13574;52.040;5.692;2023-07-02T14:27:31;7.90;;;3.38;;
25717;SDS011;13574;52.040;5.692;2023-07-02T14:30:00;8.73;;;3.40;;
25717;SDS011;13574;52.040;5.692;2023-07-02T14:32:32;10.23;;;4.10;;
25717;SDS011;13574;52.040;5.692;2023-07-02T14:35:00;7.82;;;3.50;;
25717;SDS011;13574;52.040;5.692;2023-07-02T14:37:26;9.20;;;4.10;;
25717;SDS011;13574;52.040;5.692;2023-07-02T14:39:52;7.68;;;3.58;;
25717;SDS011;13574;52.040;5.692;2023-07-02T14:42:18;10.05;;;3.42;;
25717;SDS011;13574;52.040;5.692;2023-07-02T14:44:43;7.65;;;3.78;;
25717;SDS011;13574;52.040;5.692;2023-07-02T14:47:12;9.32;;;3.47;;
25717;SDS011;13574;52.040;5.692;2023-07-02T14:49:38;8.43;;;3.72;;
25717;SDS011;13574;52.040;5.692;2023-07-02T14:52:04;9.00;;;3.15;;
25717;SDS011;13574;52.040;5.692;2023-07-02T14:54:30;7.82;;;3.20;;
25717;SDS011;13574;52.040;5.692;2023-07-02T14:56:56;9.13;;;3.40;;
25717;SDS011;13574;52.040;5.692;2023-07-02T14:59:21;7.95;;;3.75;;
25717;SDS011;13574;52.040;5.692;2023-07-02T15:01:47;9.18;;;4.22;;
25717;SDS011;13574;52.040;5.692;2023-07-02T15:04:13;10.80;;;4.20;;
25717;SDS011;13574;52.040;5.692;2023-07-02T15:06:39;7.38;;;3.85;;
25717;SDS011;13574;52.040;5.692;2023-07-02T15:09:05;9.07;;;4.20;;